Airfield :
LOGIN :

Register | Disclaimer

   EN    FR    IT 

 










Legend :    VFR   Marginal VFR   IFR   Intensive IFR   Very Intensive IFR
Visi :
Ceiling :
>= 8 km
>= 3000ft
5 to 8 km
1000 to 3000 ft
1500m to 5 km
500 to 1000 ft
800 to 1500m
200 to 500 ft
< 800m
< 200 ft
Symbols :   Thunderstorms  Fog  Heavy snow  Heavy precipitations  Wind > 20 kt
SIGMETs :     Misc.  Thunderstorms  Icing  Turbulence  Mountain Waves  Volcanic Ashes







- Airport Elevation : 289 ft
- IATA code : ZAD


LDZD - Zadar

CURRENT METAR :
  • 141700Z 00000KT 9999 FEW035 24/18 Q1012 NOSIG

EXPIRED METARs :
  • 141630Z 25004KT 210V300 9999 FEW035 23/18 Q1012 NOSIG
  • 141600Z 23009KT 190V260 9999 FEW035 23/18 Q1013 NOSIG
  • 141530Z VRB02KT 9999 FEW035 24/17 Q1012 NOSIG
  • 141500Z VRB02KT 9999 FEW035 BKN075 24/18 Q1012 NOSIG
  • 141430Z 14006KT 110V170 9999 FEW035 BKN075 23/18 Q1013 NOSIG

TAF TAF LDZD
Valid from the 14 at 12:00 until the 15 at 12:00 UTC


141126Z 1412/1512 14010KT 9999 FEW035 TX26/1414Z TN20/1503Z
PROB40
TEMPO 1412/1418 TSRA FEW030CB SCT035
TEMPO 1413/1418 32006KT
BECMG 1417/1419 VRB02KT
BECMG 1502/1504 04006KT
TEMPO 1506/1512 04014KT
No reported NOTAMs for that airfield.



MET'MAP, your aeronautical weather chart ! - Copyright ORBIFLY December 2007 - Disclaimer

ORBIFLY MET'MAP TEAM :

Programming & Development : Alexandra Zaïnal
Concept & Development : Baudouin d'Aumeries
Co-Development & Prog : Marc-Olivier Méhu
Technical & hardware support : Manuel Goepfert

Contact : metmap@orbifly.com




SOURCES & CREDITS :

   NOAA